sensor_id;sensor_type;location;lat;lon;timestamp;P1;durP1;ratioP1;P2;durP2;ratioP2
11247;SDS011;5681;53.316;13.950;2023-02-18T00:00:54;18.00;;;4.10;;
11247;SDS011;5681;53.316;13.950;2023-02-18T00:03:21;16.80;;;3.47;;
11247;SDS011;5681;53.316;13.950;2023-02-18T00:05:48;14.40;;;2.83;;
11247;SDS011;5681;53.316;13.950;2023-02-18T00:08:14;16.77;;;3.40;;
11247;SDS011;5681;53.316;13.950;2023-02-18T00:10:42;15.97;;;3.47;;
11247;SDS011;5681;53.316;13.950;2023-02-18T00:13:08;19.23;;;3.27;;
11247;SDS011;5681;53.316;13.950;2023-02-18T00:15:34;20.13;;;3.87;;
11247;SDS011;5681;53.316;13.950;2023-02-18T00:18:01;16.40;;;3.23;;
11247;SDS011;5681;53.316;13.950;2023-02-18T00:20:27;17.27;;;3.60;;
11247;SDS011;5681;53.316;13.950;2023-02-18T00:22:54;17.60;;;3.97;;
11247;SDS011;5681;53.316;13.950;2023-02-18T00:25:20;17.03;;;3.10;;
11247;SDS011;5681;53.316;13.950;2023-02-18T00:27:48;15.73;;;3.00;;
11247;SDS011;5681;53.316;13.950;2023-02-18T00:30:14;18.97;;;3.43;;
11247;SDS011;5681;53.316;13.950;2023-02-18T00:32:41;18.83;;;3.13;;
11247;SDS011;5681;53.316;13.950;2023-02-18T00:35:07;16.53;;;3.87;;
11247;SDS011;5681;53.316;13.950;2023-02-18T00:37:34;16.77;;;3.07;;
11247;SDS011;5681;53.316;13.950;2023-02-18T00:40:00;17.53;;;3.47;;
11247;SDS011;5681;53.316;13.950;2023-02-18T00:42:26;14.63;;;3.20;;
11247;SDS011;5681;53.316;13.950;2023-02-18T00:44:54;17.20;;;2.93;;
11247;SDS011;5681;53.316;13.950;2023-02-18T00:47:20;23.17;;;4.00;;
11247;SDS011;5681;53.316;13.950;2023-02-18T00:49:47;24.17;;;3.20;;
11247;SDS011;5681;53.316;13.950;2023-02-18T00:52:13;18.43;;;3.90;;
11247;SDS011;5681;53.316;13.950;2023-02-18T00:54:39;20.90;;;3.73;;
11247;SDS011;5681;53.316;13.950;2023-02-18T00:57:09;20.53;;;3.87;;
11247;SDS011;5681;53.316;13.950;2023-02-18T00:59:38;19.43;;;3.70;;
11247;SDS011;5681;53.316;13.950;2023-02-18T01:02:06;16.63;;;4.03;;
11247;SDS011;5681;53.316;13.950;2023-02-18T01:04:32;16.83;;;3.40;;
11247;SDS011;5681;53.316;13.950;2023-02-18T01:06:58;14.30;;;3.27;;
11247;SDS011;5681;53.316;13.950;2023-02-18T01:09:25;24.80;;;4.10;;
11247;SDS011;5681;53.316;13.950;2023-02-18T01:11:52;21.80;;;4.07;;
11247;SDS011;5681;53.316;13.950;2023-02-18T01:14:19;16.03;;;2.97;;
11247;SDS011;5681;53.316;13.950;2023-02-18T01:16:45;16.47;;;2.93;;
11247;SDS011;5681;53.316;13.950;2023-02-18T01:19:13;17.73;;;3.57;;
11247;SDS011;5681;53.316;13.950;2023-02-18T01:21:39;16.13;;;3.90;;
11247;SDS011;5681;53.316;13.950;2023-02-18T01:24:06;13.00;;;3.20;;
11247;SDS011;5681;53.316;13.950;2023-02-18T01:26:33;15.20;;;3.30;;
11247;SDS011;5681;53.316;13.950;2023-02-18T01:28:59;17.57;;;3.70;;
11247;SDS011;5681;53.316;13.950;2023-02-18T01:31:25;17.57;;;3.33;;
11247;SDS011;5681;53.316;13.950;2023-02-18T01:33:52;18.40;;;3.10;;
11247;SDS011;5681;53.316;13.950;2023-02-18T01:36:19;18.37;;;3.53;;
11247;SDS011;5681;53.316;13.950;2023-02-18T01:38:46;16.20;;;3.33;;
11247;SDS011;5681;53.316;13.950;2023-02-18T01:41:12;23.53;;;4.03;;
11247;SDS011;5681;53.316;13.950;2023-02-18T01:43:39;18.73;;;4.00;;
11247;SDS011;5681;53.316;13.950;2023-02-18T01:46:09;21.27;;;3.80;;
11247;SDS011;5681;53.316;13.950;2023-02-18T01:48:39;17.17;;;3.30;;
11247;SDS011;5681;53.316;13.950;2023-02-18T01:51:09;21.93;;;3.47;;
11247;SDS011;5681;53.316;13.950;2023-02-18T01:53:40;13.57;;;3.03;;
11247;SDS011;5681;53.316;13.950;2023-02-18T01:56:11;16.17;;;3.53;;
11247;SDS011;5681;53.316;13.950;2023-02-18T01:58:41;16.63;;;3.23;;
11247;SDS011;5681;53.316;13.950;2023-02-18T02:01:08;16.70;;;3.47;;
11247;SDS011;5681;53.316;13.950;2023-02-18T02:03:35;14.17;;;3.30;;
11247;SDS011;5681;53.316;13.950;2023-02-18T02:06:01;18.63;;;3.60;;
11247;SDS011;5681;53.316;13.950;2023-02-18T02:08:34;22.70;;;4.17;;
11247;SDS011;5681;53.316;13.950;2023-02-18T02:11:03;20.53;;;4.33;;
11247;SDS011;5681;53.316;13.950;2023-02-18T02:13:40;18.93;;;3.83;;
11247;SDS011;5681;53.316;13.950;2023-02-18T02:16:15;16.57;;;3.50;;
11247;SDS011;5681;53.316;13.950;2023-02-18T02:18:51;18.17;;;3.23;;
11247;SDS011;5681;53.316;13.950;2023-02-18T02:21:28;19.10;;;3.93;;
11247;SDS011;5681;53.316;13.950;2023-02-18T02:27:12;23.30;;;3.40;;
11247;SDS011;5681;53.316;13.950;2023-02-18T02:36:00;16.13;;;3.30;;
11247;SDS011;5681;53.316;13.950;2023-02-18T02:38:30;15.70;;;3.07;;
11247;SDS011;5681;53.316;13.950;2023-02-18T02:41:01;18.00;;;3.70;;
11247;SDS011;5681;53.316;13.950;2023-02-18T02:43:50;19.60;;;3.10;;
11247;SDS011;5681;53.316;13.950;2023-02-18T02:46:22;21.40;;;3.80;;
11247;SDS011;5681;53.316;13.950;2023-02-18T02:48:53;17.03;;;3.60;;
11247;SDS011;5681;53.316;13.950;2023-02-18T02:51:33;20.10;;;3.33;;
11247;SDS011;5681;53.316;13.950;2023-02-18T02:54:12;19.73;;;3.47;;
11247;SDS011;5681;53.316;13.950;2023-02-18T02:56:40;22.00;;;3.57;;
11247;SDS011;5681;53.316;13.950;2023-02-18T02:59:07;19.10;;;4.03;;
11247;SDS011;5681;53.316;13.950;2023-02-18T03:01:37;22.63;;;3.63;;
11247;SDS011;5681;53.316;13.950;2023-02-18T03:04:12;19.60;;;3.60;;
11247;SDS011;5681;53.316;13.950;2023-02-18T03:07:06;24.17;;;4.37;;
11247;SDS011;5681;53.316;13.950;2023-02-18T03:09:42;24.43;;;3.93;;
11247;SDS011;5681;53.316;13.950;2023-02-18T03:12:18;20.20;;;4.10;;
11247;SDS011;5681;53.316;13.950;2023-02-18T03:14:52;21.83;;;4.10;;
11247;SDS011;5681;53.316;13.950;2023-02-18T03:17:22;18.07;;;3.77;;
11247;SDS011;5681;53.316;13.950;2023-02-18T03:19:52;23.40;;;4.07;;
11247;SDS011;5681;53.316;13.950;2023-02-18T03:22:22;21.43;;;4.13;;
11247;SDS011;5681;53.316;13.950;2023-02-18T03:24:52;24.30;;;3.80;;
11247;SDS011;5681;53.316;13.950;2023-02-18T03:27:20;18.90;;;3.20;;
11247;SDS011;5681;53.316;13.950;2023-02-18T03:29:50;17.90;;;3.73;;
11247;SDS011;5681;53.316;13.950;2023-02-18T03:32:19;22.50;;;3.97;;
11247;SDS011;5681;53.316;13.950;2023-02-18T03:34:48;25.73;;;4.23;;
11247;SDS011;5681;53.316;13.950;2023-02-18T03:37:15;22.97;;;3.70;;
11247;SDS011;5681;53.316;13.950;2023-02-18T03:39:45;21.93;;;3.67;;
11247;SDS011;5681;53.316;13.950;2023-02-18T03:42:14;19.93;;;3.57;;
11247;SDS011;5681;53.316;13.950;2023-02-18T03:44:40;21.90;;;4.00;;
11247;SDS011;5681;53.316;13.950;2023-02-18T03:47:07;14.10;;;3.20;;
11247;SDS011;5681;53.316;13.950;2023-02-18T03:49:33;18.23;;;3.80;;
11247;SDS011;5681;53.316;13.950;2023-02-18T03:52:00;18.03;;;3.13;;
11247;SDS011;5681;53.316;13.950;2023-02-18T03:54:26;21.20;;;3.80;;
11247;SDS011;5681;53.316;13.950;2023-02-18T03:56:54;21.20;;;4.00;;
11247;SDS011;5681;53.316;13.950;2023-02-18T03:59:20;17.17;;;3.60;;
11247;SDS011;5681;53.316;13.950;2023-02-18T04:01:47;21.50;;;4.53;;
11247;SDS011;5681;53.316;13.950;2023-02-18T04:04:13;19.50;;;4.20;;
11247;SDS011;5681;53.316;13.950;2023-02-18T04:06:39;22.97;;;3.50;;
11247;SDS011;5681;53.316;13.950;2023-02-18T04:09:06;21.73;;;4.20;;
11247;SDS011;5681;53.316;13.950;2023-02-18T04:11:34;20.40;;;3.90;;
11247;SDS011;5681;53.316;13.950;2023-02-18T04:14:02;23.03;;;4.07;;
11247;SDS011;5681;53.316;13.950;2023-02-18T04:16:30;22.10;;;4.20;;
11247;SDS011;5681;53.316;13.950;2023-02-18T04:18:56;22.80;;;4.40;;
11247;SDS011;5681;53.316;13.950;2023-02-18T04:21:26;24.83;;;4.30;;
11247;SDS011;5681;53.316;13.950;2023-02-18T04:23:52;22.10;;;4.13;;
11247;SDS011;5681;53.316;13.950;2023-02-18T04:26:19;26.70;;;4.30;;
11247;SDS011;5681;53.316;13.950;2023-02-18T04:28:48;28.40;;;4.53;;
11247;SDS011;5681;53.316;13.950;2023-02-18T04:31:15;31.87;;;4.87;;
11247;SDS011;5681;53.316;13.950;2023-02-18T04:33:42;21.20;;;4.13;;
11247;SDS011;5681;53.316;13.950;2023-02-18T04:36:08;21.77;;;4.47;;
11247;SDS011;5681;53.316;13.950;2023-02-18T04:38:35;26.87;;;4.47;;
11247;SDS011;5681;53.316;13.950;2023-02-18T04:41:01;22.00;;;4.47;;
11247;SDS011;5681;53.316;13.950;2023-02-18T04:43:27;28.43;;;4.60;;
11247;SDS011;5681;53.316;13.950;2023-02-18T04:45:54;26.03;;;4.83;;
11247;SDS011;5681;53.316;13.950;2023-02-18T04:48:23;20.63;;;4.20;;
11247;SDS011;5681;53.316;13.950;2023-02-18T04:50:52;25.10;;;4.63;;
11247;SDS011;5681;53.316;13.950;2023-02-18T04:53:18;28.43;;;4.50;;
11247;SDS011;5681;53.316;13.950;2023-02-18T04:55:48;27.10;;;4.50;;
11247;SDS011;5681;53.316;13.950;2023-02-18T04:58:14;25.23;;;4.33;;
11247;SDS011;5681;53.316;13.950;2023-02-18T05:00:41;22.43;;;4.37;;
11247;SDS011;5681;53.316;13.950;2023-02-18T05:03:07;25.40;;;6.33;;
11247;SDS011;5681;53.316;13.950;2023-02-18T05:05:37;30.80;;;5.13;;
11247;SDS011;5681;53.316;13.950;2023-02-18T05:08:05;29.37;;;8.10;;
11247;SDS011;5681;53.316;13.950;2023-02-18T05:10:32;27.03;;;5.70;;
11247;SDS011;5681;53.316;13.950;2023-02-18T05:12:58;27.10;;;5.53;;
11247;SDS011;5681;53.316;13.950;2023-02-18T05:15:25;28.63;;;5.80;;
11247;SDS011;5681;53.316;13.950;2023-02-18T05:17:51;28.67;;;5.87;;
11247;SDS011;5681;53.316;13.950;2023-02-18T05:20:18;28.80;;;4.83;;
11247;SDS011;5681;53.316;13.950;2023-02-18T05:22:46;22.40;;;3.87;;
11247;SDS011;5681;53.316;13.950;2023-02-18T05:25:12;24.60;;;4.17;;
11247;SDS011;5681;53.316;13.950;2023-02-18T05:27:39;22.40;;;4.40;;
11247;SDS011;5681;53.316;13.950;2023-02-18T05:30:06;22.87;;;4.27;;
11247;SDS011;5681;53.316;13.950;2023-02-18T05:32:33;22.20;;;4.07;;
11247;SDS011;5681;53.316;13.950;2023-02-18T05:34:59;24.67;;;4.40;;
11247;SDS011;5681;53.316;13.950;2023-02-18T05:37:26;24.60;;;4.07;;
11247;SDS011;5681;53.316;13.950;2023-02-18T05:39:53;27.07;;;4.30;;
11247;SDS011;5681;53.316;13.950;2023-02-18T05:42:20;22.33;;;4.77;;
11247;SDS011;5681;53.316;13.950;2023-02-18T05:44:47;32.30;;;4.60;;
11247;SDS011;5681;53.316;13.950;2023-02-18T05:47:14;31.30;;;4.50;;
11247;SDS011;5681;53.316;13.950;2023-02-18T05:49:41;24.23;;;4.30;;
11247;SDS011;5681;53.316;13.950;2023-02-18T05:52:10;22.00;;;4.07;;
11247;SDS011;5681;53.316;13.950;2023-02-18T05:54:38;21.13;;;4.30;;
11247;SDS011;5681;53.316;13.950;2023-02-18T05:57:06;23.00;;;5.03;;
11247;SDS011;5681;53.316;13.950;2023-02-18T05:59:32;28.23;;;4.17;;
11247;SDS011;5681;53.316;13.950;2023-02-18T06:01:59;27.40;;;4.33;;
11247;SDS011;5681;53.316;13.950;2023-02-18T06:04:25;27.80;;;4.20;;
11247;SDS011;5681;53.316;13.950;2023-02-18T06:06:51;23.27;;;4.47;;
11247;SDS011;5681;53.316;13.950;2023-02-18T06:09:18;20.17;;;3.70;;
11247;SDS011;5681;53.316;13.950;2023-02-18T06:11:45;25.83;;;4.57;;
11247;SDS011;5681;53.316;13.950;2023-02-18T06:14:12;28.10;;;4.13;;
11247;SDS011;5681;53.316;13.950;2023-02-18T06:16:39;26.63;;;5.20;;
11247;SDS011;5681;53.316;13.950;2023-02-18T06:19:05;24.43;;;4.50;;
11247;SDS011;5681;53.316;13.950;2023-02-18T06:21:31;28.00;;;5.87;;
11247;SDS011;5681;53.316;13.950;2023-02-18T06:23:58;23.73;;;5.87;;
11247;SDS011;5681;53.316;13.950;2023-02-18T06:26:27;29.13;;;6.40;;
11247;SDS011;5681;53.316;13.950;2023-02-18T06:28:53;27.70;;;7.73;;
11247;SDS011;5681;53.316;13.950;2023-02-18T06:31:21;22.00;;;5.90;;
11247;SDS011;5681;53.316;13.950;2023-02-18T06:33:47;22.43;;;4.13;;
11247;SDS011;5681;53.316;13.950;2023-02-18T06:36:14;20.70;;;4.57;;
11247;SDS011;5681;53.316;13.950;2023-02-18T06:38:41;23.03;;;4.53;;
11247;SDS011;5681;53.316;13.950;2023-02-18T06:41:08;27.73;;;3.97;;
11247;SDS011;5681;53.316;13.950;2023-02-18T06:43:35;21.70;;;3.90;;
11247;SDS011;5681;53.316;13.950;2023-02-18T06:46:01;27.73;;;5.93;;
11247;SDS011;5681;53.316;13.950;2023-02-18T06:48:30;21.07;;;3.87;;
11247;SDS011;5681;53.316;13.950;2023-02-18T06:50:57;17.27;;;3.77;;
11247;SDS011;5681;53.316;13.950;2023-02-18T06:53:23;20.37;;;4.57;;
11247;SDS011;5681;53.316;13.950;2023-02-18T06:55:49;21.70;;;3.77;;
11247;SDS011;5681;53.316;13.950;2023-02-18T06:58:16;22.20;;;3.83;;
11247;SDS011;5681;53.316;13.950;2023-02-18T07:00:42;21.10;;;4.63;;
11247;SDS011;5681;53.316;13.950;2023-02-18T07:03:09;20.00;;;3.63;;
11247;SDS011;5681;53.316;13.950;2023-02-18T07:05:38;25.00;;;4.37;;
11247;SDS011;5681;53.316;13.950;2023-02-18T07:08:04;30.40;;;4.43;;
11247;SDS011;5681;53.316;13.950;2023-02-18T07:10:30;17.50;;;3.53;;
11247;SDS011;5681;53.316;13.950;2023-02-18T07:12:57;19.40;;;3.43;;
11247;SDS011;5681;53.316;13.950;2023-02-18T07:15:23;18.77;;;3.80;;
11247;SDS011;5681;53.316;13.950;2023-02-18T07:17:51;20.90;;;3.40;;
11247;SDS011;5681;53.316;13.950;2023-02-18T07:20:18;13.27;;;3.30;;
11247;SDS011;5681;53.316;13.950;2023-02-18T07:22:47;21.07;;;3.70;;
11247;SDS011;5681;53.316;13.950;2023-02-18T07:25:13;18.80;;;3.57;;
11247;SDS011;5681;53.316;13.950;2023-02-18T07:27:40;21.63;;;3.37;;
11247;SDS011;5681;53.316;13.950;2023-02-18T07:30:07;21.57;;;3.40;;
11247;SDS011;5681;53.316;13.950;2023-02-18T07:32:33;18.10;;;3.27;;
11247;SDS011;5681;53.316;13.950;2023-02-18T07:35:00;18.03;;;2.80;;
11247;SDS011;5681;53.316;13.950;2023-02-18T07:37:30;21.60;;;3.67;;
11247;SDS011;5681;53.316;13.950;2023-02-18T07:39:58;23.47;;;3.60;;
11247;SDS011;5681;53.316;13.950;2023-02-18T07:42:24;18.93;;;2.93;;
11247;SDS011;5681;53.316;13.950;2023-02-18T07:44:51;14.53;;;3.10;;
11247;SDS011;5681;53.316;13.950;2023-02-18T07:47:17;22.20;;;4.03;;
11247;SDS011;5681;53.316;13.950;2023-02-18T07:49:44;15.80;;;2.83;;
11247;SDS011;5681;53.316;13.950;2023-02-18T07:52:10;18.13;;;3.23;;
11247;SDS011;5681;53.316;13.950;2023-02-18T07:54:37;18.67;;;3.37;;
11247;SDS011;5681;53.316;13.950;2023-02-18T07:57:04;14.67;;;3.30;;
11247;SDS011;5681;53.316;13.950;2023-02-18T07:59:31;18.83;;;3.07;;
11247;SDS011;5681;53.316;13.950;2023-02-18T08:01:57;16.80;;;2.90;;
11247;SDS011;5681;53.316;13.950;2023-02-18T08:04:26;17.80;;;2.80;;
11247;SDS011;5681;53.316;13.950;2023-02-18T08:06:53;12.43;;;2.80;;
11247;SDS011;5681;53.316;13.950;2023-02-18T08:09:19;17.10;;;2.90;;
11247;SDS011;5681;53.316;13.950;2023-02-18T08:11:45;11.80;;;2.63;;
11247;SDS011;5681;53.316;13.950;2023-02-18T08:14:13;16.83;;;3.10;;
11247;SDS011;5681;53.316;13.950;2023-02-18T08:16:39;13.77;;;2.77;;
11247;SDS011;5681;53.316;13.950;2023-02-18T08:19:06;16.30;;;5.20;;
11247;SDS011;5681;53.316;13.950;2023-02-18T08:21:32;9.80;;;2.70;;
11247;SDS011;5681;53.316;13.950;2023-02-18T08:23:59;14.30;;;3.80;;
11247;SDS011;5681;53.316;13.950;2023-02-18T08:26:25;13.95;;;4.45;;
11247;SDS011;5681;53.316;13.950;2023-02-18T08:28:52;14.17;;;2.83;;
11247;SDS011;5681;53.316;13.950;2023-02-18T08:31:20;12.70;;;3.33;;
11247;SDS011;5681;53.316;13.950;2023-02-18T08:33:49;13.20;;;2.47;;
11247;SDS011;5681;53.316;13.950;2023-02-18T08:36:15;14.60;;;2.77;;
11247;SDS011;5681;53.316;13.950;2023-02-18T08:38:42;10.10;;;2.17;;
11247;SDS011;5681;53.316;13.950;2023-02-18T08:41:08;11.07;;;3.13;;
11247;SDS011;5681;53.316;13.950;2023-02-18T08:43:35;8.73;;;2.30;;
11247;SDS011;5681;53.316;13.950;2023-02-18T08:46:01;9.10;;;1.90;;
11247;SDS011;5681;53.316;13.950;2023-02-18T08:48:29;9.23;;;2.40;;
11247;SDS011;5681;53.316;13.950;2023-02-18T08:50:55;14.30;;;2.43;;
11247;SDS011;5681;53.316;13.950;2023-02-18T08:53:22;11.47;;;2.33;;
11247;SDS011;5681;53.316;13.950;2023-02-18T08:55:48;6.70;;;2.07;;
11247;SDS011;5681;53.316;13.950;2023-02-18T08:58:15;7.97;;;1.97;;
11247;SDS011;5681;53.316;13.950;2023-02-18T09:00:41;7.20;;;1.90;;
11247;SDS011;5681;53.316;13.950;2023-02-18T09:03:09;10.85;;;1.92;;
11247;SDS011;5681;53.316;13.950;2023-02-18T09:05:39;6.82;;;1.63;;
11247;SDS011;5681;53.316;13.950;2023-02-18T09:08:05;6.30;;;1.55;;
11247;SDS011;5681;53.316;13.950;2023-02-18T09:10:32;9.57;;;3.08;;
11247;SDS011;5681;53.316;13.950;2023-02-18T09:12:58;6.33;;;1.77;;
11247;SDS011;5681;53.316;13.950;2023-02-18T09:15:25;7.80;;;2.20;;
11247;SDS011;5681;53.316;13.950;2023-02-18T09:17:51;7.78;;;2.13;;
11247;SDS011;5681;53.316;13.950;2023-02-18T09:20:17;8.77;;;2.25;;
11247;SDS011;5681;53.316;13.950;2023-02-18T09:22:45;5.65;;;1.75;;
11247;SDS011;5681;53.316;13.950;2023-02-18T09:25:11;8.93;;;2.00;;
11247;SDS011;5681;53.316;13.950;2023-02-18T09:27:38;5.87;;;1.77;;
11247;SDS011;5681;53.316;13.950;2023-02-18T09:30:05;7.13;;;2.10;;
11247;SDS011;5681;53.316;13.950;2023-02-18T09:32:32;8.02;;;3.25;;
11247;SDS011;5681;53.316;13.950;2023-02-18T09:34:58;9.30;;;3.07;;
11247;SDS011;5681;53.316;13.950;2023-02-18T09:37:24;4.97;;;1.73;;
11247;SDS011;5681;53.316;13.950;2023-02-18T09:39:52;6.43;;;1.83;;
11247;SDS011;5681;53.316;13.950;2023-02-18T09:42:20;10.07;;;2.38;;
11247;SDS011;5681;53.316;13.950;2023-02-18T09:44:50;7.17;;;2.10;;
11247;SDS011;5681;53.316;13.950;2023-02-18T09:47:18;5.83;;;1.97;;
11247;SDS011;5681;53.316;13.950;2023-02-18T09:49:48;7.73;;;2.07;;
11247;SDS011;5681;53.316;13.950;2023-02-18T09:52:19;8.30;;;2.10;;
11247;SDS011;5681;53.316;13.950;2023-02-18T09:54:47;8.82;;;3.80;;
11247;SDS011;5681;53.316;13.950;2023-02-18T09:57:20;10.07;;;3.35;;
11247;SDS011;5681;53.316;13.950;2023-02-18T09:59:49;5.93;;;1.70;;
11247;SDS011;5681;53.316;13.950;2023-02-18T10:02:19;6.10;;;1.93;;
11247;SDS011;5681;53.316;13.950;2023-02-18T10:04:45;7.18;;;2.40;;
11247;SDS011;5681;53.316;13.950;2023-02-18T10:07:17;6.90;;;1.87;;
11247;SDS011;5681;53.316;13.950;2023-02-18T10:09:45;6.50;;;1.90;;
11247;SDS011;5681;53.316;13.950;2023-02-18T10:12:13;8.23;;;2.03;;
11247;SDS011;5681;53.316;13.950;2023-02-18T10:14:42;10.00;;;4.90;;
11247;SDS011;5681;53.316;13.950;2023-02-18T10:17:11;9.30;;;2.40;;
11247;SDS011;5681;53.316;13.950;2023-02-18T10:19:39;7.40;;;3.87;;
11247;SDS011;5681;53.316;13.950;2023-02-18T10:22:06;8.65;;;2.50;;
11247;SDS011;5681;53.316;13.950;2023-02-18T10:24:34;8.97;;;4.07;;
11247;SDS011;5681;53.316;13.950;2023-02-18T10:27:04;10.07;;;3.07;;
11247;SDS011;5681;53.316;13.950;2023-02-18T10:29:31;9.10;;;3.57;;
11247;SDS011;5681;53.316;13.950;2023-02-18T10:32:03;8.07;;;2.97;;
11247;SDS011;5681;53.316;13.950;2023-02-18T10:34:38;8.30;;;2.00;;
11247;SDS011;5681;53.316;13.950;2023-02-18T10:37:07;11.65;;;3.78;;
11247;SDS011;5681;53.316;13.950;2023-02-18T10:39:43;9.93;;;3.35;;
11247;SDS011;5681;53.316;13.950;2023-02-18T10:42:19;5.80;;;1.93;;
11247;SDS011;5681;53.316;13.950;2023-02-18T10:44:53;6.07;;;1.73;;
11247;SDS011;5681;53.316;13.950;2023-02-18T10:47:28;13.40;;;2.67;;
11247;SDS011;5681;53.316;13.950;2023-02-18T10:50:04;6.17;;;2.17;;
11247;SDS011;5681;53.316;13.950;2023-02-18T10:52:35;4.35;;;1.70;;
11247;SDS011;5681;53.316;13.950;2023-02-18T10:55:04;4.47;;;1.60;;
11247;SDS011;5681;53.316;13.950;2023-02-18T10:57:33;8.70;;;1.87;;
11247;SDS011;5681;53.316;13.950;2023-02-18T11:00:00;8.52;;;2.03;;
11247;SDS011;5681;53.316;13.950;2023-02-18T11:02:36;7.40;;;3.27;;
11247;SDS011;5681;53.316;13.950;2023-02-18T11:05:05;7.15;;;1.80;;
11247;SDS011;5681;53.316;13.950;2023-02-18T11:07:43;6.80;;;2.07;;
11247;SDS011;5681;53.316;13.950;2023-02-18T11:10:14;7.40;;;3.67;;
11247;SDS011;5681;53.316;13.950;2023-02-18T11:12:43;8.30;;;2.70;;
11247;SDS011;5681;53.316;13.950;2023-02-18T11:15:18;10.17;;;2.37;;
11247;SDS011;5681;53.316;13.950;2023-02-18T11:17:47;9.80;;;3.28;;
11247;SDS011;5681;53.316;13.950;2023-02-18T11:20:23;7.50;;;2.95;;
11247;SDS011;5681;53.316;13.950;2023-02-18T11:22:56;9.40;;;2.57;;
11247;SDS011;5681;53.316;13.950;2023-02-18T11:25:24;8.97;;;3.47;;
11247;SDS011;5681;53.316;13.950;2023-02-18T11:27:53;8.33;;;2.87;;
11247;SDS011;5681;53.316;13.950;2023-02-18T11:30:21;8.53;;;3.00;;
11247;SDS011;5681;53.316;13.950;2023-02-18T11:32:51;17.30;;;9.23;;
11247;SDS011;5681;53.316;13.950;2023-02-18T11:35:21;20.75;;;10.75;;
11247;SDS011;5681;53.316;13.950;2023-02-18T11:37:49;23.93;;;15.43;;
11247;SDS011;5681;53.316;13.950;2023-02-18T11:40:19;10.63;;;6.53;;
11247;SDS011;5681;53.316;13.950;2023-02-18T11:42:47;6.17;;;2.80;;
11247;SDS011;5681;53.316;13.950;2023-02-18T11:45:25;8.30;;;2.30;;
11247;SDS011;5681;53.316;13.950;2023-02-18T11:48:06;7.63;;;1.60;;
11247;SDS011;5681;53.316;13.950;2023-02-18T11:50:41;5.63;;;1.80;;
11247;SDS011;5681;53.316;13.950;2023-02-18T11:53:24;6.93;;;1.90;;
11247;SDS011;5681;53.316;13.950;2023-02-18T11:55:52;3.80;;;1.70;;
11247;SDS011;5681;53.316;13.950;2023-02-18T11:58:20;4.27;;;1.70;;
11247;SDS011;5681;53.316;13.950;2023-02-18T12:00:47;3.43;;;1.40;;
11247;SDS011;5681;53.316;13.950;2023-02-18T12:03:19;2.57;;;1.33;;
11247;SDS011;5681;53.316;13.950;2023-02-18T12:05:54;3.57;;;1.10;;
11247;SDS011;5681;53.316;13.950;2023-02-18T12:08:23;3.37;;;1.53;;
11247;SDS011;5681;53.316;13.950;2023-02-18T12:10:51;2.43;;;1.20;;
11247;SDS011;5681;53.316;13.950;2023-02-18T12:13:21;5.47;;;1.97;;
11247;SDS011;5681;53.316;13.950;2023-02-18T12:15:51;3.20;;;1.03;;
11247;SDS011;5681;53.316;13.950;2023-02-18T12:18:26;0.73;;;0.63;;
11247;SDS011;5681;53.316;13.950;2023-02-18T12:21:11;3.60;;;1.00;;
11247;SDS011;5681;53.316;13.950;2023-02-18T12:23:46;1.50;;;0.80;;
11247;SDS011;5681;53.316;13.950;2023-02-18T12:26:19;1.00;;;0.70;;
11247;SDS011;5681;53.316;13.950;2023-02-18T12:28:53;0.80;;;0.70;;
11247;SDS011;5681;53.316;13.950;2023-02-18T12:31:33;0.53;;;0.53;;
11247;SDS011;5681;53.316;13.950;2023-02-18T12:34:20;1.43;;;0.67;;
11247;SDS011;5681;53.316;13.950;2023-02-18T12:36:55;1.57;;;0.67;;
11247;SDS011;5681;53.316;13.950;2023-02-18T12:39:30;1.63;;;0.67;;
11247;SDS011;5681;53.316;13.950;2023-02-18T12:42:08;0.50;;;0.40;;
11247;SDS011;5681;53.316;13.950;2023-02-18T12:44:42;1.83;;;0.50;;
11247;SDS011;5681;53.316;13.950;2023-02-18T12:47:16;2.10;;;0.80;;
11247;SDS011;5681;53.316;13.950;2023-02-18T12:50:02;2.37;;;1.83;;
11247;SDS011;5681;53.316;13.950;2023-02-18T12:52:41;1.90;;;1.07;;
11247;SDS011;5681;53.316;13.950;2023-02-18T12:55:19;1.90;;;0.50;;
11247;SDS011;5681;53.316;13.950;2023-02-18T12:57:54;0.50;;;0.43;;
11247;SDS011;5681;53.316;13.950;2023-02-18T13:00:37;1.80;;;0.67;;
11247;SDS011;5681;53.316;13.950;2023-02-18T13:06:21;0.77;;;0.47;;
11247;SDS011;5681;53.316;13.950;2023-02-18T13:09:07;0.83;;;0.50;;
11247;SDS011;5681;53.316;13.950;2023-02-18T13:11:40;0.67;;;0.50;;
11247;SDS011;5681;53.316;13.950;2023-02-18T13:14:13;1.63;;;0.50;;
11247;SDS011;5681;53.316;13.950;2023-02-18T13:16:43;0.80;;;0.70;;
11247;SDS011;5681;53.316;13.950;2023-02-18T13:19:15;0.80;;;0.73;;
11247;SDS011;5681;53.316;13.950;2023-02-18T13:21:45;0.70;;;0.70;;
11247;SDS011;5681;53.316;13.950;2023-02-18T13:24:15;0.70;;;0.60;;
11247;SDS011;5681;53.316;13.950;2023-02-18T13:26:44;1.03;;;0.50;;
11247;SDS011;5681;53.316;13.950;2023-02-18T13:29:16;1.03;;;0.40;;
11247;SDS011;5681;53.316;13.950;2023-02-18T13:31:49;0.93;;;0.60;;
11247;SDS011;5681;53.316;13.950;2023-02-18T13:34:26;2.40;;;1.00;;
11247;SDS011;5681;53.316;13.950;2023-02-18T13:37:00;2.33;;;0.80;;
11247;SDS011;5681;53.316;13.950;2023-02-18T13:39:30;0.90;;;0.53;;
11247;SDS011;5681;53.316;13.950;2023-02-18T13:42:11;0.97;;;0.90;;
11247;SDS011;5681;53.316;13.950;2023-02-18T13:48:00;1.80;;;1.30;;
11247;SDS011;5681;53.316;13.950;2023-02-18T13:50:28;0.97;;;0.90;;
11247;SDS011;5681;53.316;13.950;2023-02-18T13:52:59;0.90;;;0.80;;
11247;SDS011;5681;53.316;13.950;2023-02-18T13:55:39;0.70;;;0.60;;
11247;SDS011;5681;53.316;13.950;2023-02-18T13:58:10;1.30;;;0.57;;
11247;SDS011;5681;53.316;13.950;2023-02-18T14:00:39;0.40;;;0.40;;
11247;SDS011;5681;53.316;13.950;2023-02-18T14:03:18;1.43;;;0.60;;
11247;SDS011;5681;53.316;13.950;2023-02-18T14:05:46;0.80;;;0.47;;
11247;SDS011;5681;53.316;13.950;2023-02-18T14:08:14;0.60;;;0.40;;
11247;SDS011;5681;53.316;13.950;2023-02-18T14:10:41;0.87;;;0.70;;
11247;SDS011;5681;53.316;13.950;2023-02-18T14:13:21;0.57;;;0.50;;
11247;SDS011;5681;53.316;13.950;2023-02-18T14:16:03;0.47;;;0.47;;
11247;SDS011;5681;53.316;13.950;2023-02-18T14:18:31;0.33;;;0.33;;
11247;SDS011;5681;53.316;13.950;2023-02-18T14:23:55;0.97;;;0.33;;
11247;SDS011;5681;53.316;13.950;2023-02-18T14:26:29;0.70;;;0.40;;
11247;SDS011;5681;53.316;13.950;2023-02-18T14:28:59;0.60;;;0.60;;
11247;SDS011;5681;53.316;13.950;2023-02-18T14:31:29;1.70;;;0.50;;
11247;SDS011;5681;53.316;13.950;2023-02-18T14:34:07;0.60;;;0.60;;
11247;SDS011;5681;53.316;13.950;2023-02-18T14:36:57;0.50;;;0.50;;
11247;SDS011;5681;53.316;13.950;2023-02-18T14:39:40;0.50;;;0.50;;
11247;SDS011;5681;53.316;13.950;2023-02-18T14:42:15;1.80;;;0.70;;
11247;SDS011;5681;53.316;13.950;2023-02-18T14:44:57;0.87;;;0.70;;
11247;SDS011;5681;53.316;13.950;2023-02-18T14:47:34;1.60;;;0.70;;
11247;SDS011;5681;53.316;13.950;2023-02-18T14:50:09;0.90;;;0.50;;
11247;SDS011;5681;53.316;13.950;2023-02-18T14:52:37;0.83;;;0.60;;
11247;SDS011;5681;53.316;13.950;2023-02-18T14:55:13;2.20;;;0.60;;
11247;SDS011;5681;53.316;13.950;2023-02-18T14:57:44;0.73;;;0.60;;
11247;SDS011;5681;53.316;13.950;2023-02-18T15:02:41;0.33;;;0.30;;
11247;SDS011;5681;53.316;13.950;2023-02-18T15:05:11;1.33;;;0.40;;
11247;SDS011;5681;53.316;13.950;2023-02-18T15:07:39;0.20;;;0.20;;
11247;SDS011;5681;53.316;13.950;2023-02-18T15:10:12;0.30;;;0.30;;
11247;SDS011;5681;53.316;13.950;2023-02-18T15:12:39;0.50;;;0.50;;
11247;SDS011;5681;53.316;13.950;2023-02-18T15:15:06;3.60;;;2.63;;